Centennial, WY (82055)

8:33 PM MST on December 02, 2016 (GMT -0700)
West of Centennial WY | | Change Station

Elev 8274 ft 41.30 °N, 106.15 °W | Updated 15 seconds ago

Scattered Clouds
Scattered Clouds
10.2 °F
Feels Like 10 °F
N
0.9
Wind Variable Wind from WNW
Gusts 2.5 mph

Today
High -- | Low -- °F
--% Chance of Precip.
Yesterday
High -- | Low -- °F
Precip. -- in
Pressure 30.29 in
Visibility 9.0 miles
Clouds Scattered Clouds 6000 ft
Windchill 10 °F
Dew Point 3 °F
Humidity 73%
Rainfall 0.00 in
Snow Depth Not available.
7:12 AM 4:35 PM
Waxing Crescent, 12% visible
METAR KLAR 030253Z AUTO 00000KT 9SM SCT060 M10/M12 A3007 RMK AO2 SLP255 T11001117 50000
Pressure 30.29 in
Visibility 9.0 miles
Clouds Scattered Clouds 6000 ft
Windchill 10 °F
Dew Point 3 °F
Humidity 73%
Rainfall 0.00 in
Snow Depth Not available.
7:12 AM 4:35 PM
Waxing Crescent, 12% visible
METAR KLAR 030253Z AUTO 00000KT 9SM SCT060 M10/M12 A3007 RMK AO2 SLP255 T11001117 50000

10-Day Weather Forecast

Almanac

Astronomy

Dec. 02, 2016 Rise Set
Actual Time
Civil Twilight
Nautical Twilight
Astronomical Twilight
Moon
Length of Visible Light
Length of Day
Tomorrow will be .
, % of the Moon is Illuminated

Today's Extremes

State Highs State Lows

Community

WunderPhotos

Upload Photos

1,955,406 photos uploaded!

WunderBlog® & News

Nearby

Air Quality

  Air Quality AQ Index Pollutant
Not available.

Snow Depth

Station Depth Elevation

Earthquake Activity

City Distance Mag. Time & Date
Minimum magnitude displayed is 2.5.

Coastal Water Temperatures

Place Temperature

Stations

Nearby Weather Stations

Station Location Temp. Windchill Dew Point Humidity Wind Precip. Elev Updated Type
                   

Watches & Warnings

There are currently no watches in effect.